Morning Sun, Iowa
Current Conditions -  °F | °C
As of 12:55 PM on Wednesday 26 Nov 2014 (Local Time) from KMPZ Reporting Station
Light Snow Light Snow  
Wind Chill: 21°   Ceiling: 800
Heat Index: 31°   Visibility: 0.75mi
Dew Point: 28°   Wind: 13mph
Humidity: 90%   Direction: 90°E
Pressure: 29.98"   Gusts: NA
Location:  41.1°N, 91.26°W
Report Text: KMPZ 261855Z AUTO 09011KT 3/4SM -SN OVC008 00/M02 A2998 RMK AO2 T10051020
Loading
Personal Weather Stations






























Interactive Weather Map New forecast layout! Learn more

10-Day Weather Forecast

Advertisements
Track Severe Weather on mobile